createdAt,value
2022-12-15T00:02:36.122Z,91.90
2022-12-15T00:05:22.223Z,80.30
2022-12-15T00:08:07.663Z,79.43
2022-12-15T00:10:53.684Z,73.87
2022-12-15T00:13:38.982Z,57.93
2022-12-15T00:16:25.156Z,47.07
2022-12-15T00:19:11.187Z,47.30
2022-12-15T00:21:56.484Z,50.00
2022-12-15T00:24:41.856Z,46.10
2022-12-15T00:27:27.452Z,47.87
2022-12-15T00:30:12.747Z,48.13
2022-12-15T00:32:58.005Z,44.70
2022-12-15T00:35:43.586Z,40.33
2022-12-15T00:38:31.502Z,38.07
2022-12-15T00:41:01.353Z,39.97
2022-12-15T00:43:30.690Z,32.80
2022-12-15T00:46:16.791Z,33.90
2022-12-15T00:48:44.063Z,31.30
2022-12-15T00:51:11.245Z,38.80
2022-12-15T00:53:57.367Z,35.27
2022-12-15T00:56:43.539Z,36.03
2022-12-15T00:59:29.419Z,34.27
2022-12-15T01:02:14.968Z,33.87
2022-12-15T01:05:00.347Z,41.10
2022-12-15T01:07:49.387Z,39.33
2022-12-15T01:10:37.002Z,30.13
2022-12-15T01:13:23.610Z,35.97
2022-12-15T01:16:09.166Z,30.33
2022-12-15T01:18:55.146Z,33.40
2022-12-15T01:21:24.977Z,32.87
2022-12-15T01:23:52.601Z,30.40
2022-12-15T01:26:20.005Z,29.20
2022-12-15T01:28:46.906Z,35.20
2022-12-15T01:31:14.473Z,29.60
2022-12-15T01:33:43.598Z,30.33
2022-12-15T01:36:11.750Z,31.20
2022-12-15T01:38:38.719Z,40.73
2022-12-15T01:41:09.743Z,29.30
2022-12-15T01:43:39.622Z,31.83
2022-12-15T01:46:18.959Z,33.80
2022-12-15T01:48:58.670Z,31.73
2022-12-15T01:51:26.933Z,39.23
2022-12-15T01:53:57.577Z,36.00
2022-12-15T01:56:26.535Z,36.00
2022-12-15T01:58:57.655Z,33.33
2022-12-15T02:01:24.776Z,36.50
2022-12-15T02:03:51.843Z,31.57
2022-12-15T02:06:22.393Z,32.00
2022-12-15T02:08:52.504Z,34.27
2022-12-15T02:11:46.016Z,31.03
2022-12-15T02:14:41.480Z,30.20
2022-12-15T02:17:31.733Z,39.17
2022-12-15T02:20:08.741Z,38.00
2022-12-15T02:22:51.834Z,30.53
2022-12-15T02:25:42.666Z,33.03
2022-12-15T02:28:32.137Z,34.97
2022-12-15T02:31:30.538Z,36.63
2022-12-15T02:34:06.273Z,32.43
2022-12-15T02:36:37.379Z,36.80
2022-12-15T02:39:05.357Z,36.70
2022-12-15T02:41:42.792Z,35.63
2022-12-15T02:44:12.308Z,37.87
2022-12-15T02:47:07.077Z,33.90
2022-12-15T02:50:00.638Z,29.87
2022-12-15T02:52:45.853Z,37.13
2022-12-15T02:55:40.767Z,37.90
2022-12-15T02:58:19.502Z,35.60
2022-12-15T03:00:59.842Z,32.43
2022-12-15T03:03:29.820Z,35.60
2022-12-15T03:05:57.750Z,32.63
2022-12-15T03:08:24.755Z,38.67
2022-12-15T03:10:54.448Z,31.00
2022-12-15T03:13:23.011Z,36.80
2022-12-15T03:15:50.243Z,29.57
2022-12-15T03:18:17.213Z,31.80
2022-12-15T03:20:44.150Z,33.43
2022-12-15T03:23:11.151Z,33.43
2022-12-15T03:25:38.032Z,34.67
2022-12-15T03:28:05.158Z,31.63
2022-12-15T03:30:32.120Z,32.23
2022-12-15T03:32:59.018Z,34.60
2022-12-15T03:35:25.958Z,30.37
2022-12-15T03:37:52.797Z,34.00
2022-12-15T03:40:19.675Z,32.33
2022-12-15T03:42:49.298Z,33.77
2022-12-15T03:45:24.729Z,32.60
2022-12-15T03:47:52.988Z,36.03
2022-12-15T03:50:25.587Z,31.20
2022-12-15T03:52:55.241Z,38.40
2022-12-15T03:55:22.730Z,34.23
2022-12-15T03:57:50.081Z,37.07
2022-12-15T04:00:18.655Z,35.87
2022-12-15T04:02:46.843Z,32.40
2022-12-15T04:05:31.985Z,34.03
2022-12-15T04:08:00.555Z,35.50
2022-12-15T04:10:34.499Z,33.00
2022-12-15T04:13:07.448Z,35.40
2022-12-15T04:15:36.415Z,32.50
2022-12-15T04:18:07.755Z,30.13
2022-12-15T04:20:34.649Z,34.70
2022-12-15T04:23:01.782Z,34.23
2022-12-15T04:25:47.179Z,34.43
2022-12-15T04:28:33.058Z,34.30
2022-12-15T04:31:28.873Z,33.17
2022-12-15T04:34:21.009Z,30.73
2022-12-15T04:37:09.477Z,33.97
2022-12-15T04:39:56.991Z,31.63
2022-12-15T04:42:43.017Z,37.17
2022-12-15T04:45:30.501Z,33.30
2022-12-15T04:48:15.904Z,36.47
2022-12-15T04:51:01.276Z,48.37
2022-12-15T04:53:46.901Z,58.73
2022-12-15T04:56:33.907Z,46.43
2022-12-15T04:59:19.751Z,42.53
2022-12-15T05:02:05.411Z,53.03
2022-12-15T05:04:51.139Z,59.53
2022-12-15T05:07:36.998Z,55.33
2022-12-15T05:10:23.551Z,47.83
2022-12-15T05:13:08.890Z,60.07
2022-12-15T05:15:54.499Z,58.97
2022-12-15T05:18:40.528Z,50.53
2022-12-15T05:21:26.286Z,31.90
2022-12-15T05:24:11.700Z,34.07
2022-12-15T05:26:57.106Z,33.97
2022-12-15T05:29:42.416Z,36.17
2022-12-15T05:32:09.406Z,38.80
2022-12-15T05:34:37.742Z,41.43
2022-12-15T05:37:07.327Z,35.77
2022-12-15T05:39:34.427Z,32.50
2022-12-15T05:42:01.620Z,36.23
2022-12-15T05:44:28.993Z,31.80
2022-12-15T05:46:56.026Z,33.43
2022-12-15T05:49:23.347Z,32.43
2022-12-15T05:51:50.665Z,34.07
2022-12-15T05:54:19.468Z,33.57
2022-12-15T05:56:47.168Z,35.80
2022-12-15T05:59:17.820Z,31.10
2022-12-15T06:01:44.920Z,32.70
2022-12-15T06:04:12.972Z,33.70
2022-12-15T06:06:41.117Z,32.93
2022-12-15T06:09:08.893Z,32.00
2022-12-15T06:11:37.447Z,34.87
2022-12-15T06:14:04.737Z,38.73
2022-12-15T06:16:32.255Z,35.63
2022-12-15T06:19:01.542Z,35.20
2022-12-15T06:21:35.368Z,39.37
2022-12-15T06:24:08.128Z,36.70
2022-12-15T06:26:39.749Z,39.80
2022-12-15T06:29:10.259Z,38.50
2022-12-15T06:31:38.004Z,38.60
2022-12-15T06:34:07.785Z,37.93
2022-12-15T06:36:35.244Z,40.43
2022-12-15T06:39:04.487Z,35.33
2022-12-15T06:41:31.727Z,36.37
2022-12-15T06:44:00.708Z,36.07
2022-12-15T06:46:29.751Z,35.60
2022-12-15T06:48:57.161Z,41.10
2022-12-15T06:51:24.639Z,40.40
2022-12-15T06:53:55.255Z,41.27
2022-12-15T06:56:32.574Z,37.73
2022-12-15T06:59:01.819Z,44.47
2022-12-15T07:01:29.733Z,49.10
2022-12-15T07:03:59.949Z,40.53
2022-12-15T07:06:28.513Z,37.30
2022-12-15T07:08:56.733Z,39.53
2022-12-15T07:11:23.926Z,40.00
2022-12-15T07:13:52.219Z,38.93
2022-12-15T07:16:21.067Z,38.63
2022-12-15T07:18:48.169Z,36.43
2022-12-15T07:21:15.326Z,34.13
2022-12-15T07:23:58.080Z,37.23
2022-12-15T07:26:25.952Z,32.87
2022-12-15T07:28:53.576Z,31.57
2022-12-15T07:31:21.508Z,40.30
2022-12-15T07:33:48.732Z,40.33
2022-12-15T07:36:16.219Z,42.93
2022-12-15T07:38:50.072Z,38.30
2022-12-15T07:41:18.912Z,37.33
2022-12-15T07:43:47.097Z,35.50
2022-12-15T07:46:14.232Z,38.73
2022-12-15T07:48:41.401Z,39.80
2022-12-15T07:51:17.164Z,37.00
2022-12-15T07:53:47.108Z,46.43
2022-12-15T07:56:14.040Z,32.60
2022-12-15T07:58:42.016Z,30.57
2022-12-15T08:01:12.438Z,38.37
2022-12-15T08:03:40.655Z,39.73
2022-12-15T08:06:13.164Z,36.00
2022-12-15T08:08:40.654Z,38.60
2022-12-15T08:11:09.563Z,36.60
2022-12-15T08:16:24.468Z,32.83
2022-12-15T08:18:51.322Z,37.17
2022-12-15T08:21:18.272Z,38.00
2022-12-15T08:23:45.759Z,33.37
2022-12-15T08:26:15.924Z,32.47
2022-12-15T08:28:43.805Z,33.30
2022-12-15T08:31:13.527Z,35.17
2022-12-15T08:33:40.639Z,33.63
2022-12-15T08:36:10.559Z,39.73
2022-12-15T08:38:39.288Z,64.80
2022-12-15T08:41:13.722Z,45.80
2022-12-15T08:43:47.592Z,40.33
2022-12-15T08:46:23.433Z,41.57
2022-12-15T08:48:51.140Z,40.53
2022-12-15T08:51:18.128Z,31.97
2022-12-15T08:53:46.105Z,35.57
2022-12-15T08:56:16.273Z,36.77
2022-12-15T08:58:44.584Z,37.00
2022-12-15T09:01:24.097Z,33.27
2022-12-15T09:03:55.806Z,34.63
2022-12-15T09:06:34.740Z,32.03
2022-12-15T09:09:05.483Z,32.47
2022-12-15T09:11:33.059Z,35.00
2022-12-15T09:14:00.363Z,37.63
2022-12-15T09:16:28.036Z,31.77
2022-12-15T09:18:57.300Z,30.87
2022-12-15T09:21:26.822Z,29.30
2022-12-15T09:23:56.187Z,31.00
2022-12-15T09:26:24.001Z,46.73
2022-12-15T09:28:51.455Z,36.83
2022-12-15T09:31:21.913Z,31.27
2022-12-15T09:33:50.826Z,27.37
2022-12-15T09:36:17.867Z,22.57
2022-12-15T09:38:44.997Z,21.63
2022-12-15T09:41:15.041Z,25.83
2022-12-15T09:43:54.532Z,23.87
2022-12-15T09:46:36.841Z,28.07
2022-12-15T09:49:13.469Z,25.50
2022-12-15T09:51:50.777Z,28.87
2022-12-15T09:54:17.961Z,21.27
2022-12-15T09:56:51.823Z,21.07
2022-12-15T09:59:43.387Z,22.57
2022-12-15T10:02:16.174Z,23.33
2022-12-15T10:05:05.782Z,29.30
2022-12-15T10:07:42.034Z,28.37
2022-12-15T10:10:39.014Z,26.87
2022-12-15T10:13:14.713Z,27.63
2022-12-15T10:15:51.339Z,26.67
2022-12-15T10:18:23.625Z,25.50
2022-12-15T10:20:54.185Z,20.00
2022-12-15T10:23:21.640Z,19.10
2022-12-15T10:28:59.970Z,19.37
2022-12-15T10:31:35.813Z,19.53
2022-12-15T10:34:11.471Z,21.80
2022-12-15T10:36:44.461Z,31.30
2022-12-15T10:39:14.446Z,21.80
2022-12-15T10:41:43.974Z,29.27
2022-12-15T10:44:31.851Z,25.90
2022-12-15T10:47:08.720Z,18.10
2022-12-15T10:49:35.602Z,23.03
2022-12-15T10:52:02.702Z,33.83
2022-12-15T10:54:36.893Z,25.80
2022-12-15T10:57:31.631Z,24.70
2022-12-15T11:00:13.811Z,20.47
2022-12-15T11:02:42.160Z,28.80
2022-12-15T11:05:17.910Z,22.57
2022-12-15T11:07:48.948Z,16.97
2022-12-15T11:10:26.429Z,16.17
2022-12-15T11:13:16.292Z,20.07
2022-12-15T11:15:50.579Z,19.70
2022-12-15T11:18:37.281Z,20.50
2022-12-15T11:21:24.178Z,17.40
2022-12-15T11:24:13.752Z,16.80
2022-12-15T11:26:58.653Z,20.20
2022-12-15T11:30:07.738Z,19.03
2022-12-15T11:32:37.459Z,18.17
2022-12-15T11:35:06.536Z,16.50
2022-12-15T11:37:58.344Z,20.43
2022-12-15T11:40:39.991Z,18.07
2022-12-15T11:43:18.867Z,17.97
2022-12-15T11:46:09.804Z,19.93
2022-12-15T11:48:49.006Z,19.57
2022-12-15T11:51:40.585Z,21.90
2022-12-15T11:54:29.756Z,21.03
2022-12-15T11:57:21.085Z,21.87
2022-12-15T12:00:23.188Z,16.77
2022-12-15T12:03:12.459Z,18.70
2022-12-15T12:05:48.762Z,17.60
2022-12-15T12:08:38.033Z,21.57
2022-12-15T12:11:44.755Z,20.80
2022-12-15T12:14:27.690Z,20.53
2022-12-15T12:17:06.226Z,23.07
2022-12-15T12:19:56.448Z,21.40
2022-12-15T12:22:31.846Z,20.90
2022-12-15T12:25:06.891Z,20.57
2022-12-15T12:27:50.328Z,17.40
2022-12-15T12:30:23.398Z,19.67
2022-12-15T12:33:12.473Z,23.03
2022-12-15T12:35:43.040Z,27.07
2022-12-15T12:38:12.182Z,23.07
2022-12-15T12:40:42.079Z,21.13
2022-12-15T12:43:14.177Z,23.77
2022-12-15T12:45:44.344Z,23.40
2022-12-15T12:48:25.751Z,19.10
2022-12-15T12:51:08.173Z,22.07
2022-12-15T12:53:35.541Z,18.47
2022-12-15T12:56:02.766Z,17.77
2022-12-15T12:58:34.817Z,19.00
2022-12-15T13:01:10.991Z,19.87
2022-12-15T13:03:42.509Z,21.27
2022-12-15T13:06:34.213Z,21.63
2022-12-15T13:09:23.084Z,21.03
2022-12-15T13:11:52.773Z,18.97
2022-12-15T13:14:27.116Z,18.63
2022-12-15T13:17:26.933Z,21.70
2022-12-15T13:19:57.337Z,17.93
2022-12-15T13:22:41.837Z,19.80
2022-12-15T13:25:27.316Z,23.50
2022-12-15T13:28:15.978Z,23.23
2022-12-15T13:31:20.886Z,24.63
2022-12-15T13:33:50.702Z,22.77
2022-12-15T13:40:35.452Z,23.00
2022-12-15T13:43:05.477Z,22.23
2022-12-15T13:45:55.096Z,21.67
2022-12-15T13:48:36.084Z,20.23
2022-12-15T13:51:17.887Z,23.30
2022-12-15T13:53:52.909Z,22.30
2022-12-15T13:56:48.946Z,22.80
2022-12-15T13:59:36.138Z,22.23
2022-12-15T14:02:03.123Z,28.70
2022-12-15T14:04:30.100Z,28.10
2022-12-15T14:07:00.781Z,24.93
2022-12-15T14:09:39.803Z,24.70
2022-12-15T14:12:12.454Z,27.60
2022-12-15T14:14:46.689Z,26.20
2022-12-15T14:17:17.949Z,23.40
2022-12-15T14:19:51.202Z,25.97
2022-12-15T14:22:28.222Z,24.93
2022-12-15T14:25:13.333Z,23.43
2022-12-15T14:27:40.555Z,23.93
2022-12-15T14:30:16.303Z,24.40
2022-12-15T14:32:44.995Z,26.43
2022-12-15T14:35:15.665Z,25.77
2022-12-15T14:37:43.703Z,28.83
2022-12-15T14:40:16.965Z,24.23
2022-12-15T14:42:45.180Z,24.47
2022-12-15T14:45:25.555Z,35.77
2022-12-15T14:48:30.399Z,31.17
2022-12-15T14:50:47.713Z,31.80
2022-12-15T14:53:17.700Z,28.47
2022-12-15T14:55:44.737Z,30.50
2022-12-15T14:58:32.774Z,29.90
2022-12-15T15:01:01.393Z,36.33
2022-12-15T15:03:11.382Z,22.73
2022-12-15T15:03:34.451Z,32.53
2022-12-15T15:06:11.052Z,29.10
2022-12-15T15:08:49.052Z,26.83
2022-12-15T15:11:51.535Z,26.53
2022-12-15T15:14:26.739Z,27.07
2022-12-15T15:17:04.439Z,30.17
2022-12-15T15:19:37.630Z,32.70
2022-12-15T15:22:06.319Z,39.07
2022-12-15T15:24:37.450Z,44.50
2022-12-15T15:27:25.993Z,79.60
2022-12-15T15:30:05.964Z,58.30
2022-12-15T15:32:33.176Z,42.13
2022-12-15T15:35:00.124Z,53.50
2022-12-15T15:37:27.035Z,47.40
2022-12-15T15:39:55.493Z,86.87
2022-12-15T15:42:26.561Z,82.13
2022-12-15T15:44:57.884Z,72.10
2022-12-15T15:47:26.455Z,54.90
2022-12-15T15:49:58.198Z,57.60
2022-12-15T15:52:25.415Z,47.43
2022-12-15T15:54:53.562Z,50.93
2022-12-15T15:57:20.456Z,62.07
2022-12-15T15:59:47.839Z,50.33
2022-12-15T16:02:15.317Z,57.13
2022-12-15T16:04:43.721Z,53.27
2022-12-15T16:07:29.084Z,51.83
2022-12-15T16:09:56.989Z,40.50
2022-12-15T16:12:29.765Z,41.13
2022-12-15T16:14:56.700Z,43.07
2022-12-15T16:17:24.144Z,40.67
2022-12-15T16:19:51.006Z,35.40
2022-12-15T16:22:22.275Z,31.47
2022-12-15T16:24:49.203Z,34.00
2022-12-15T16:27:16.606Z,34.30
2022-12-15T16:29:44.551Z,32.83
2022-12-15T16:32:14.622Z,33.50
2022-12-15T16:34:42.060Z,30.50
2022-12-15T16:37:28.246Z,38.53
2022-12-15T16:39:55.234Z,34.47
2022-12-15T16:42:22.145Z,32.47
2022-12-15T16:44:49.105Z,31.30
2022-12-15T16:47:16.114Z,33.40
2022-12-15T16:49:43.063Z,33.80
2022-12-15T16:52:28.245Z,41.00
2022-12-15T16:54:55.222Z,34.23
2022-12-15T16:57:22.136Z,38.40
2022-12-15T16:59:49.870Z,36.70
2022-12-15T17:02:27.361Z,28.50
2022-12-15T17:04:55.339Z,33.77
2022-12-15T17:07:23.656Z,34.70
2022-12-15T17:09:51.102Z,41.70
2022-12-15T17:12:18.748Z,41.60
2022-12-15T17:14:45.999Z,37.53
2022-12-15T17:17:15.542Z,41.57
2022-12-15T17:19:57.827Z,40.37
2022-12-15T17:22:29.846Z,40.83
2022-12-15T17:24:56.784Z,46.37
2022-12-15T17:27:28.924Z,54.17
2022-12-15T17:29:57.897Z,57.00
2022-12-15T17:32:24.835Z,103.70
2022-12-15T17:34:51.959Z,94.40
2022-12-15T17:37:18.974Z,77.07
2022-12-15T17:39:50.950Z,63.60
2022-12-15T17:42:19.793Z,59.97
2022-12-15T17:44:48.340Z,58.97
2022-12-15T17:47:16.593Z,56.47
2022-12-15T17:49:44.001Z,53.93
2022-12-15T17:52:30.559Z,67.40
2022-12-15T17:54:57.869Z,64.27
2022-12-15T17:57:25.503Z,52.67
2022-12-15T17:59:52.809Z,53.83
2022-12-15T18:02:19.808Z,71.03
2022-12-15T18:04:47.502Z,90.33
2022-12-15T18:07:18.390Z,104.73
2022-12-15T18:09:45.553Z,92.10
2022-12-15T18:12:24.981Z,102.50
2022-12-15T18:14:53.115Z,105.53
2022-12-15T18:17:20.352Z,99.70
2022-12-15T18:19:47.581Z,94.43
2022-12-15T18:22:25.564Z,84.93
2022-12-15T18:24:54.298Z,90.23
2022-12-15T18:27:29.022Z,95.87
2022-12-15T18:29:56.957Z,89.80
2022-12-15T18:32:26.605Z,71.97
2022-12-15T18:34:54.681Z,84.33
2022-12-15T18:37:24.769Z,89.53
2022-12-15T18:39:52.059Z,102.60
2022-12-15T18:42:20.952Z,137.03
2022-12-15T18:44:50.333Z,123.40
2022-12-15T18:47:19.099Z,117.87
2022-12-15T18:49:46.090Z,106.63
2022-12-15T18:52:22.332Z,124.50
2022-12-15T18:54:50.615Z,137.10
2022-12-15T18:57:32.183Z,110.37
2022-12-15T19:00:16.493Z,132.03
2022-12-15T19:02:43.571Z,105.70
2022-12-15T19:05:30.958Z,107.07
2022-12-15T19:08:02.624Z,101.00
2022-12-15T19:10:33.008Z,105.83
2022-12-15T19:13:00.317Z,99.83
2022-12-15T19:15:27.388Z,93.00
2022-12-15T19:18:12.971Z,92.87
2022-12-15T19:20:58.673Z,89.40
2022-12-15T19:23:25.783Z,81.77
2022-12-15T19:25:53.803Z,92.97
2022-12-15T19:28:23.304Z,119.03
2022-12-15T19:30:52.094Z,118.93
2022-12-15T19:33:20.009Z,134.10
2022-12-15T19:35:50.869Z,133.27
2022-12-15T19:38:25.402Z,120.17
2022-12-15T19:40:53.436Z,117.47
2022-12-15T19:43:22.058Z,120.70
2022-12-15T19:45:49.879Z,102.13
2022-12-15T19:48:21.680Z,80.50
2022-12-15T19:50:51.998Z,80.63
2022-12-15T19:53:26.334Z,88.50
2022-12-15T19:55:56.606Z,82.33
2022-12-15T19:58:29.898Z,77.70
2022-12-15T20:01:05.613Z,71.70
2022-12-15T20:03:33.383Z,70.90
2022-12-15T20:06:02.097Z,73.07
2022-12-15T20:08:35.503Z,76.57
2022-12-15T20:11:02.507Z,68.40
2022-12-15T20:13:30.474Z,76.10
2022-12-15T20:15:58.188Z,80.33
2022-12-15T20:18:25.090Z,68.23
2022-12-15T20:20:52.122Z,62.33
2022-12-15T20:23:26.388Z,49.90
2022-12-15T20:25:54.133Z,53.93
2022-12-15T20:28:27.325Z,59.03
2022-12-15T20:30:56.241Z,58.10
2022-12-15T20:33:23.948Z,60.63
2022-12-15T20:35:51.651Z,55.80
2022-12-15T20:38:32.225Z,60.17
2022-12-15T20:41:00.743Z,55.80
2022-12-15T20:43:33.765Z,56.93
2022-12-15T20:46:07.751Z,59.57
2022-12-15T20:48:36.746Z,60.20
2022-12-15T20:51:09.288Z,69.27
2022-12-15T20:53:37.942Z,58.90
2022-12-15T20:56:06.199Z,65.93
2022-12-15T20:58:40.678Z,62.23
2022-12-15T21:01:26.363Z,86.17
2022-12-15T21:03:58.095Z,84.97
2022-12-15T21:06:26.613Z,82.97
2022-12-15T21:08:55.143Z,93.53
2022-12-15T21:11:25.441Z,140.77
2022-12-15T21:13:54.523Z,175.77
2022-12-15T21:16:29.209Z,122.70
2022-12-15T21:19:20.284Z,90.07
2022-12-15T21:21:48.842Z,84.73
2022-12-15T21:24:19.117Z,78.57
2022-12-15T21:26:46.470Z,68.80
2022-12-15T21:29:15.952Z,61.03
2022-12-15T21:31:43.509Z,58.70
2022-12-15T21:34:10.679Z,57.83
2022-12-15T21:36:39.814Z,59.13
2022-12-15T21:39:11.611Z,54.53
2022-12-15T21:41:41.947Z,52.63
2022-12-15T21:44:14.329Z,51.70
2022-12-15T21:46:41.545Z,56.50
2022-12-15T21:49:17.580Z,55.27
2022-12-15T21:52:12.591Z,76.57
2022-12-15T21:54:39.409Z,50.17
2022-12-15T21:57:10.352Z,44.30
2022-12-15T21:59:37.800Z,47.43
2022-12-15T22:02:34.308Z,46.57
2022-12-15T22:05:01.619Z,53.00
2022-12-15T22:07:28.531Z,53.20
2022-12-15T22:09:55.499Z,54.27
2022-12-15T22:12:24.565Z,51.43
2022-12-15T22:14:52.079Z,52.40
2022-12-15T22:17:21.899Z,58.10
2022-12-15T22:19:48.907Z,57.07
2022-12-15T22:22:16.546Z,81.33
2022-12-15T22:24:43.894Z,67.10
2022-12-15T22:27:20.154Z,271.67
2022-12-15T22:29:48.555Z,200.73
2022-12-15T22:32:17.225Z,332.03
2022-12-15T22:34:44.383Z,211.27
2022-12-15T22:37:11.235Z,224.23
2022-12-15T22:39:38.200Z,344.50
2022-12-15T22:42:05.792Z,432.30
2022-12-15T22:44:37.246Z,113.67
2022-12-15T22:47:04.841Z,298.90
2022-12-15T22:49:37.650Z,552.60
2022-12-15T22:52:17.033Z,170.90
2022-12-15T22:54:45.993Z,121.30
2022-12-15T22:57:28.584Z,115.70
2022-12-15T23:00:02.805Z,234.47
2022-12-15T23:02:33.766Z,159.97
2022-12-15T23:05:01.350Z,90.07
2022-12-15T23:07:28.624Z,87.60
2022-12-15T23:10:15.855Z,98.07
2022-12-15T23:12:42.685Z,92.50
2022-12-15T23:15:28.536Z,83.47
2022-12-15T23:17:55.422Z,69.10
2022-12-15T23:20:22.331Z,77.37
2022-12-15T23:22:49.225Z,70.33
2022-12-15T23:25:16.216Z,81.87
2022-12-15T23:27:43.118Z,73.93
2022-12-15T23:30:12.693Z,78.93
2022-12-15T23:32:39.700Z,78.20
2022-12-15T23:35:06.898Z,74.40
2022-12-15T23:37:34.747Z,79.27
2022-12-15T23:40:01.617Z,82.63
2022-12-15T23:42:28.558Z,92.97
2022-12-15T23:44:55.478Z,75.73
2022-12-15T23:47:22.410Z,78.00
2022-12-15T23:49:49.746Z,80.87
2022-12-15T23:52:20.290Z,84.07
2022-12-15T23:54:47.232Z,78.33
2022-12-15T23:57:14.172Z,77.13
2022-12-15T23:59:41.048Z,79.77
